大田区羽田空港3丁目周辺1kmのツイート

大田区羽田空港3丁目周辺1kmからツイッターのつぶやきを検索した結果です。検索結果は地図に重ね合わせて表示しています。


検索結果

Daisuke mamesan

CCIE#25421
ネットワークエンジニア?
軌跡シリーズ/イース/シムシティ/Router/Switch/OpenFlow/SDN

I'm at 東京国際空港 / 羽田空港 in 大田区, 東京都

2017-09-20 20:10

RJTT METAR rjtt_metar

Haneda, Tokyo Int'l Airport

RJTT 201100Z 23019KT CAVOK 25/18 Q1004 NOSIG RMK A2966

2017-09-20 20:07

山本四汚音d DBA_176042

愛さずにはいられない未来へ。🗻📗🌊🎵か→ま→く→ら

Mercedes-AMG GT Roadster
#mercedesamg #mercedes #amg #amggtroadster #amggt #r190 #c190… HANEDA

2017-09-20 19:57

百舌鳥@関東 mozu_tan

もずだよっ(っ˘ω˘c )シュガーとマカロと暮らしております( ˇωˇ )

I'm at 羽田空港 第1旅客ターミナル in 大田区, 東京都

2017-09-20 19:41

RJTT METAR rjtt_metar

Haneda, Tokyo Int'l Airport

RJTT 201030Z 23016KT CAVOK 26/18 Q1004 NOSIG RMK A2966

2017-09-20 19:36

みずき mizki_18

香川⇒京都⇒香川 音楽と車と異文化が好き

滞在時間四時間しかなかった😇

泊まってゆっくりしたかったよ東京

2017-09-20 19:22

silas tsurreal1972

TA.マキアダ⃝チ⃝ 瀬川⃝あやか⃝ TOM⃝OO 2002-0502から現職.2010-0815から禁酒.音に救われる日々.だな. あやなん🍼 そらかげ c⍤⃝

勤務を終えサクッと帰るStyle🛫安室さんのライブには安室さんそっくりなJULYさんと何度か行きましたねぇ(遠い目)最近の曲も聴きますがSay the word / ALARM / Four Seasons / STROBE / no more tearsあたりが特に好きね。

2017-09-20 19:21

amds 羽田 amds_hanedaToky

羽田の気温をつぶやきます。気象庁のアメダスのページから約30分遅れで更新されます。

羽田(東京都) 19:00の 気温 25.7℃ 南西の風,9.2m/s

2017-09-20 19:20

俺様! dreadhead_1971

I'm “Tabibito” since August 2010.

I'm at 東京国際空港 / 羽田空港 in 大田区, 東京都

2017-09-20 19:12

気象うさぎ:大田 mgn_ota

東京都大田区の気温や警報/注意報などをグラフ付きでつぶやくロボットです。全国にいます。気象庁情報。(管理人: @mitdok )

【19:00時点 25.7℃】
27.1~22.4℃
=東京都大田区 #ota #大田

2017-09-20 19:11

そろそろレモンサワーです ideanomad

カレーを愛しています。アイデアノマドという会社とか、のんべい横丁の黍のオーナーとかをしてたりします。むかし恵比寿にあった隠れ家バー203とか日本の平均的かつ最先端のクラブACID PANDA CAFEとかのオーナーもしてましたよ。

到着♫ (@ 東京国際空港 / 羽田空港 in 大田区, 東京都)

2017-09-20 19:08

RJTT METAR rjtt_metar

Haneda, Tokyo Int'l Airport

RJTT 201000Z 23018KT CAVOK 26/18 Q1004 NOSIG RMK A2966

2017-09-20 19:07

まさにゃん/Masaya Kimoto MasayaKimoto

鳥取大学総合メディア基盤センターで准教授やってる猫大好き人@国境無き猫もふ団鳥大支部長。非鯖缶。Twitterの講義利用とか考えて開始して既にどーでもよくなった割と残念でリプDMあんまり見まてんな通知オフでお腹痛い人。iPhone/iPad/Mac/Linux/LibreOffice/NeoOffice/Firefox

現在地は東京都大田区羽田空港三丁目付近ですの。(精度65m,前回地点より509.1km移動) - #imakoko_jp #imakoko_tokyo_jp

2017-09-20 18:59

出家したい上忍 884_Koji

上忍/下中忍首席合格
早弓会 ゲッタ

帰る (@ 東京国際空港 / 羽田空港 in 大田区, 東京都)

2017-09-20 18:58

アカプヨ AKAP4

好きな言葉は「こちら側のどこからでも切れます」

さらば7連休 (@ 羽田空港 第2旅客ターミナル in 大田区, 東京都)

2017-09-20 18:55

黎鸞 laylan

岡山駅でいろいろ写真を撮りそこなった...

2017-09-20 18:53

出家したい上忍 884_Koji

上忍/下中忍首席合格
早弓会 ゲッタ

スカイメイトでもラウンジを使おうとする阿呆 (@ エアポートラウンジ (北) in 大田区, 東京都)

2017-09-20 18:47

カナイシュンイチ shun1cani

26歳です。釣りに目覚めました。

ねんりん家カフェでルービー

酔っ払ったまま飛行機乗ります。

#帰省 #宮崎 #羽田空港 #ビール #ねんりん家 #ふらふら #酔っ払い 場所: 羽田空港国内線旅客ターミナル

2017-09-20 18:41

RJTT METAR rjtt_metar

Haneda, Tokyo Int'l Airport

RJTT 200930Z 23017KT CAVOK 26/17 Q1004 NOSIG RMK A2965

2017-09-20 18:35

まつお☆とも seeeachicken

鳥栖サポの筑豊人。飯塚と見せかけて本当は大都会桂川。石炭を食べて生きている。仕事は弁護士かもしれない。事務所は福岡県のどこか。福岡県なんたら会に所属。コクッパさまがボス。福岡県が大好き。

今からおうちに帰る。

2017-09-20 18:34

RJTT METAR rjtt_metar

Haneda, Tokyo Int'l Airport

RJTT 200922Z 23016G26KT CAVOK 26/17 Q1004 RMK A2965

2017-09-20 18:33

amds 羽田 amds_hanedaToky

羽田の気温をつぶやきます。気象庁のアメダスのページから約30分遅れで更新されます。

羽田(東京都) 18:00の 気温 26.3℃ 南西の風,8.6m/s

2017-09-20 18:20

ぷ〜@Daytona675SE 1127Pu

デブじゃないポッチャリ系だ!2級整備士
Daytona675SE'12

I'm at 東京国際空港 / 羽田空港 in 大田区, 東京都

2017-09-20 18:19

ふらは fraha_

C#/TypeScript/Java/C/Python/Server/FreeBSD/Nikon/Arduino/ITKeys 4th/Security

I'm at 東京国際空港 / 羽田空港 in 大田区, 東京都

2017-09-20 18:16

minami sud_du_shonan

波もあるけど i feel 上々

おねむなう

2017-09-20 18:15

気象うさぎ:大田 mgn_ota

東京都大田区の気温や警報/注意報などをグラフ付きでつぶやくロボットです。全国にいます。気象庁情報。(管理人: @mitdok )

【18:00時点 26.3℃】
27.1~22.4℃
=東京都大田区 #ota #大田

2017-09-20 18:12

RJTT METAR rjtt_metar

Haneda, Tokyo Int'l Airport

RJTT 200900Z 23017KT CAVOK 26/17 Q1003 NOSIG RMK A2964

2017-09-20 18:06

ぴこピコ telex_k

常時80台で回りたい社畜ゴルファー
東京よりも地方都市の方がゴルフ環境いいのねん。

とうきょうちほーに到着~。 (@ 東京国際空港 / 羽田空港 in 大田区, 東京都)

2017-09-20 17:51

白亜有栖 1220yuukunn

ただのゲーマー。
ゲームとリアル両方呟きます。
東方/茨乃s/FPS中毒/191cm/ライトノベル/鳥/ソシャゲ/鹿児島/エロゲ/サブカルDJ

飛ぶ前に一服中... (@ 東京国際空港 / 羽田空港 in 大田区, 東京都)

2017-09-20 17:47

シューマ871 shuuma871

趣味は車&ドライブ。嫁と信州をこよなく愛する、 26歳。パソコン屋&運送屋経営。好きなアーティストは、家入レオ、GLAY等…♪

配完 (@ 羽田空港 東貨物ターミナル地区 in 大田区, 東京都)

2017-09-20 17:47

RJTT METAR rjtt_metar

Haneda, Tokyo Int'l Airport

RJTT 200830Z 23018KT CAVOK 26/16 Q1003 NOSIG RMK A2964

2017-09-20 17:37

波多野智也(Tomoya Hatano) zrnnhtb

千葉県印西市出身、東京都文京区在住。アスタミューゼで広報・パブリックリレーションやってます サッカー、離島旅行、深夜ラジオが好き。ベース弾きます。マジメな発言はnewspicksやブログでしてます

ただいま東京 (@ 東京国際空港 / 羽田空港 in 大田区, 東京都)

2017-09-20 17:29

🦄Nash🦄@信頼と品質のロマン輝く force0will

にわかニコ厨、にわかパズドラ厨、にわかAKB厨、にわかモノノフ 2012年6月2日にわかHKT厨デビュー! 2012年7月JapanExpoのももクロZのライブに感動! 2012年8月1日チーム4公演! 石田晴香/AKINA/村重杏奈/森保まどか/谷口愛理/ももクロ 最近艦これ始めましたw

羽田着いた!

2017-09-20 17:28

肉体派おじゃる丸 Mukenu14

野糞

I'm at 羽田空港国内線ターミナル駅 in 大田区, 東京都

2017-09-20 17:23

amds 羽田 amds_hanedaToky

羽田の気温をつぶやきます。気象庁のアメダスのページから約30分遅れで更新されます。

羽田(東京都) 17:00の 気温 26.6℃ 南西の風,6.8m/s

2017-09-20 17:20

気象うさぎ:大田 mgn_ota

東京都大田区の気温や警報/注意報などをグラフ付きでつぶやくロボットです。全国にいます。気象庁情報。(管理人: @mitdok )

【17:00時点 26.6℃】
27.1~22.4℃
=東京都大田区 #ota #大田

2017-09-20 17:13

けんた@HKT劇場はるっぴ生誕余韻🍊 yui_ykym1208

推しメン=横山由依/兒玉遥/須藤凛々花/谷真理佳/ 中井りか/横道侑里 next➡9/19はるっぴ生誕、LINEグループゆいはん神推し会、りりぽん応援室、チーム谷推しNo.195、無言フォローOK、ツイートをいいねやRTしてくれた方はフォローさせていただきますm(_ _)m

戻って来てしまった… (@ 東京国際空港 / 羽田空港 in 大田区, 東京都)

2017-09-20 17:13

きえ〜る専務 窪之内 誠 botch_

環境ダイゼン/バイオAW/きえーる/ 北海道北見市

うっすら🗻がみえる
#sony #a7s2 #a7sii #sonyalfa #emount #55mm #写真 #photo #streetsnap #snapshot… サクララウンジ

2017-09-20 17:11

RJTT METAR rjtt_metar

Haneda, Tokyo Int'l Airport

RJTT 200800Z 23013G23KT CAVOK 27/16 Q1003 NOSIG

2017-09-20 17:08

y_suga12 y_suga12

遅ればせながらSNS1年生です。日々勉強中~♪ なうれるようになるかなぁ~

昨日、今日とで早朝作業もあってクタクター。
空席あったから、ひとつ早いやつに変更して、帰るんー。

2017-09-20 17:08

肉体派おじゃる丸 Mukenu14

野糞

I'm at 羽田空港 第1旅客ターミナル in 大田区, 東京都

2017-09-20 17:04

水野拓也 mizutakuvet

山口大学で教員をやっています。獣医臨床もやっていますが、目標は獣医学から何かを発信することです。それを目指して日々つぶやいていきます。ここで述べることは、私個人の意見であり、所属する大学などに関連するものではありません。

I'm at 東京国際空港 / 羽田空港 in 大田区, 東京都

2017-09-20 17:03

飯栖担人@京都秘封【女32】 meshi_yayoi

不定期通いメシスタントです。絵師なんて名乗れない壊死です。美味しいものを探して食べ歩きをしています。

羽田空港

2017-09-20 16:54

Tsuyoshi Nishida tnishida03

ツアーコンダクター。メンタルヘルスマネジメントⅡ種、心理学検定2級取得。心理学を勉強、宗教学、文化人類学をかじる。

飛び待ちに入ります。 (@ 東京国際空港 / 羽田空港 in 大田区, 東京都)

2017-09-20 16:54

あっちょ daichi_1994

休みは寝ているよりもアクティブに!美味しいもの食べたり新たな場所へ!仲間と過ごす刺激的な毎日.

I'm at 羽田空港 第1旅客ターミナル in 大田区, 東京都

2017-09-20 16:50

beer_usagiさだお beer_usagi

あービール飲みたい(サッポロビールたんのみね)/北海道コンサドーレ札幌を応援してる事が多いです/健全なお風呂、銭湯/食生活を晒すことによって効果的なダイエットを提案してます/動物は愛でるのも食べるのも好きですね/下ネタはキライです!( ´・ω・`)

きみに中ジョッキ(ノε`*)ノ (@ ビヤレストラン銀座ライオン 羽田マーケットプレイス店 in Ōta, 東京都)

2017-09-20 16:48

minami37346 minami373vr46

羽田空港ベースで活動中 たまに横田・入間にも展開します。。

Las Vegas Sands Corp
Boeing 737-700
N887LS
天空橋前にて

2017-09-20 16:42

KD⊿ prfm1215Lufy

PTA会員7年目/SMELLS LIKE TEEN SPiRiTS 1年目/日本ハムファン/Perfume NOCCHi/でんぱ組.inc 成瀬瑛美/BiSH アイナ・ジ・エンド/VJやってます!(200s)

I'm at 東京国際空港 / 羽田空港 in 大田区, 東京都

2017-09-20 16:39

シュン shun_1218

この電車は、山手線内回り、東京・上野方面ゆきです。次は、田町、田町、お出口は左側です。京浜東北線は、お乗換えです。

I'm at 東京国際空港 / 羽田空港 in 大田区, 東京都

2017-09-20 16:37

RJTT METAR rjtt_metar

Haneda, Tokyo Int'l Airport

RJTT 200730Z 22015KT CAVOK 27/16 Q1003 NOSIG RMK A2964

2017-09-20 16:36

森下 かつひけこ morikatsu0405

「四万十けーぶるてれび」すたっふ。
いろいろ企画・技術的なこともするし。
番組もたまに作る。ドロンも飛ばしてます。
まぁ雑用係です。

高知へ

2017-09-20 16:20

amds 羽田 amds_hanedaToky

羽田の気温をつぶやきます。気象庁のアメダスのページから約30分遅れで更新されます。

羽田(東京都) 16:00の 気温 26.5℃ 南西の風,4.9m/s

2017-09-20 16:20

気象うさぎ:大田 mgn_ota

東京都大田区の気温や警報/注意報などをグラフ付きでつぶやくロボットです。全国にいます。気象庁情報。(管理人: @mitdok )

【16:00時点 26.5℃】
26.7~22.4℃
=東京都大田区 #ota #大田

2017-09-20 16:13

小牧☕R25麻理さん号 minirider_r25

ロクデナシライダー

I'm at 羽田空港 第2旅客ターミナル in 大田区, 東京都

2017-09-20 16:10

RJTT METAR rjtt_metar

Haneda, Tokyo Int'l Airport

RJTT 200700Z 22010KT 180V240 9999 FEW030 SCT130 BKN150 27/16 Q1003 NOSIG RMK 1CU030 4AC130 7AC150 A2964

2017-09-20 16:07

でもん+ demo_planet

でもんです。郡山市民。あんちゃんしかみえない・・・。livetune+現場はだいたいいる。モデルさんはみんないい子。たまにアニソン現場に顔を出す。インスタ(デジイチ初心者)→ #livetuneplus #やのあんな親善大使 #やのあんな #kz

I'm at 66番ゲート in 大田区, 東京都

2017-09-20 16:07

kir r_92smooth

ホンダ党 #BelieveInMcLarenHonda

見るだけ()

2017-09-20 15:44

エビ Marty_EbiFly

夏川椎菜さん

I'm at 東京国際空港 / 羽田空港 in 大田区, 東京都

2017-09-20 15:40

©Y0shid@hi™ yo3yo3yo3

小さな旅に出かけたい(ezwebのアドレスなくなりました)

I'm at ANAラウンジ 本館南 in Ōta, Tōkyō-to

2017-09-20 15:40

何もん@117 loyzuita

人間界最弱

帰還 (@ 東京国際空港 / 羽田空港 in 大田区, 東京都)

2017-09-20 15:38

RJTT METAR rjtt_metar

Haneda, Tokyo Int'l Airport

RJTT 200630Z 19011KT 9999 FEW030 SCT100 BKN160 26/19 Q1004 NOSIG RMK 1CU030 4AC100 7AC160 A2965

2017-09-20 15:38

シバフ shibahu419

芝生。横浜Fマリノス。航空機。 ディズニー。写真もちょっと。 マイブームはサウナ。最近は沖縄の空の下で桜を見たいなと…

I'm at 羽田空港 第2旅客ターミナル in 大田区, 東京都

2017-09-20 15:38

amds 羽田 amds_hanedaToky

羽田の気温をつぶやきます。気象庁のアメダスのページから約30分遅れで更新されます。

羽田(東京都) 15:00の 気温 24.7℃ 南の風,6.7m/s

2017-09-20 15:20

気象うさぎ:大田 mgn_ota

東京都大田区の気温や警報/注意報などをグラフ付きでつぶやくロボットです。全国にいます。気象庁情報。(管理人: @mitdok )

【15:00時点 24.7℃】
25.1~22.4℃
=東京都大田区 #ota #大田

2017-09-20 15:12

minami37346 minami373vr46

羽田空港ベースで活動中 たまに横田・入間にも展開します。。

羽田空港 ↑ N53M
GULFSTREAM AEROSPACE GV-SP (G550)
#HND #Nエリア #gulfstream

2017-09-20 15:07

RJTT METAR rjtt_metar

Haneda, Tokyo Int'l Airport

RJTT 200600Z 17013KT CAVOK 25/21 Q1004 NOSIG

2017-09-20 15:07

Gordon Schumway GordonSchumway0

一会社員。 最近は育児に追われています。 第一種猟銃免許取得。教習射撃無事に終了。これから、所持許可の申請をします。最近の趣味は薪集め。 生活スタイルがアウトドアにシフトして来ました。 たまにはカメラを持って出掛けます。

いつもの落ち着く席に。 (@ JALサクララウンジ - 北ウイング in 大田区, 東京都)

2017-09-20 15:00

tomo(転職活動中) delpierre_r1000

やる気ない!元気ない!鈴菌!!

I'm at 羽田空港 第2旅客ターミナル in 大田区, 東京都

2017-09-20 15:00

ゴミクズぉι゛ㄘωぽ anpan_hrtk

処女膜ノ内弁当。

俺の負け。 (@ 羽田空港 第1旅客ターミナル in 大田区, 東京都)

2017-09-20 14:59

もーり。。 weeeeeell

百笑.10代目
醸造







○ PENTAX k-1 ○ fujifilm x100f ○ Olympus e-m5 markⅡ
基本、東京におりませぬ。

フライトのお供は本能寺ホテル🎦✈️
綾瀬はるかはなぜ可愛いのか。

2017-09-20 14:58

yukochi yukochi9118

kawasaki Vulcan Drifter 道産子ライダー 東京⇆大阪、兼務で単身赴任中……ライダーさん達の楽しいツイートを閲覧したく無言フォローしてます。御容赦下さい🙏

@itanisiena ( ̄▽ ̄;)…良かったです…ね。

2017-09-20 14:44

yukochi yukochi9118

kawasaki Vulcan Drifter 道産子ライダー 東京⇆大阪、兼務で単身赴任中……ライダーさん達の楽しいツイートを閲覧したく無言フォローしてます。御容赦下さい🙏

@itanisiena 確実にキツいと思われます(>_<)

2017-09-20 14:40

もーり。。 weeeeeell

百笑.10代目
醸造







○ PENTAX k-1 ○ fujifilm x100f ○ Olympus e-m5 markⅡ
基本、東京におりませぬ。

ホットはあちぃあちぃ~

2017-09-20 14:37

RJTT METAR rjtt_metar

Haneda, Tokyo Int'l Airport

RJTT 200530Z 17011KT 9999 VCSH NSC 25/21 Q1005 NOSIG RMK 5AC090 7AC120 A2968

2017-09-20 14:36

えいむず Eom_Iom_MomS

もうすぐヲタク引退だから、メイプルーフの時だけ最前ください。

ただいま、東京 (@ 東京国際空港 / 羽田空港 in 大田区, 東京都)

2017-09-20 14:35

BUNBUN BUNBUN_Rider

YAMAHA MT-09とSUZUKI SWIFT RSでうろちょろしてます:)

I'm at 東京国際空港 / 羽田空港 in 大田区, 東京都

2017-09-20 14:35

鳥海(かもしか3号) kuroha481_exp

鉄道・航空・道路交通/いきものがかり/星野源/ラジオ/水どう/郵趣
羽後生まれ、相模在住。馬と犬などに癒しを感じる旅好きです。 今のところ日本国内のみで展開しております。

久しぶりの吉野家ー はしご定期券使ってサラ牛食べた。 (@ 吉野家 羽田空港第1ターミナルビル店 - @yoshinoyagyudon in Ōta, 東京都)

2017-09-20 14:28

RJSKの人 JA707Ana_RJSK

秋田空港利用推進協議会会長

I'm at 65番ゲート in 大田区, 東京都

2017-09-20 14:23

Yuji Matsuda spirale_yuuji

PimilA Japan 株式会社 代表取締役。セレクトショップ「choa choa」オーナー。オーダーメイドジュエリーブランド「PimilA」オーナー。「titty&co」外部PR 。その他韓国アパレル、コスメブランドのPR。企業研修講師。

大阪行って来ます✈️
.
#大阪 #osaka #sneaker #christianlouboutin

2017-09-20 14:22

nrswhrk_kap jamjamjaaaaaam_

I'm at 羽田空港国内線ターミナル駅 in 大田区, 東京都

2017-09-20 14:21

nrswhrk_kap jamjamjaaaaaam_

I'm at 東京国際空港 / 羽田空港 in 大田区, 東京都

2017-09-20 14:21

加藤掌心 KatouShoushin

札幌を拠点に、書道作品制作教室の運営と創作活動を展開中。

関所にて、到着の儀式。
#カレー #羽田着いたらまずはコレ 場所: 羽田空港国内線旅客ターミナル

2017-09-20 14:21

amds 羽田 amds_hanedaToky

羽田の気温をつぶやきます。気象庁のアメダスのページから約30分遅れで更新されます。

羽田(東京都) 14:00の 気温 24.4℃ 南南東の風,5.8m/s

2017-09-20 14:20

よっちぃー@9/23 vs湘南 qu_yocchi0801

Jリーグ観戦(京都サンガ・アビスパ福岡)/鉄道(元RRRS)/デレマス(紗枝)/QUSW研究会

Next Aqours2nd埼玉1日目現地

I'm at 羽田空港 第1旅客ターミナル in 大田区, 東京都

2017-09-20 14:17

気象うさぎ:大田 mgn_ota

東京都大田区の気温や警報/注意報などをグラフ付きでつぶやくロボットです。全国にいます。気象庁情報。(管理人: @mitdok )

【14:00時点 24.4℃】
24.8~22.4℃
=東京都大田区 #ota #大田

2017-09-20 14:12

ふみとん Amazomiku39

ミクさん、ボカロ、やきゅう(阪神ファン) 時にマジスパカードマン レトロゲーム好きな関西人です。マジスパ アクエリアス全店制覇達成 !ラブライブ! ことりちゃん サンシャイン! 曜ちゃん推し けものフレンズ トキさん ヴァイスシュバルツやってます ミクユニ部 阪神ミクユニの人です。(アイコンは使用許可頂いています)

I'm at 羽田空港国内線ターミナル駅 in 大田区, 東京都

2017-09-20 14:09

ふみとん Amazomiku39

ミクさん、ボカロ、やきゅう(阪神ファン) 時にマジスパカードマン レトロゲーム好きな関西人です。マジスパ アクエリアス全店制覇達成 !ラブライブ! ことりちゃん サンシャイン! 曜ちゃん推し けものフレンズ トキさん ヴァイスシュバルツやってます ミクユニ部 阪神ミクユニの人です。(アイコンは使用許可頂いています)

I'm at 羽田空港 第1旅客ターミナル in 大田区, 東京都

2017-09-20 14:09

レトレ retore

艦これ(大湊), FSX, FIFAシリーズ, Cities:Skylinesで遊んでる奴.α7IIユーザー.

I'm at 23番ゲート in 大田区, 東京都

2017-09-20 14:06

RJTT METAR rjtt_metar

Haneda, Tokyo Int'l Airport

RJTT 200500Z 17011KT 9999 VCSH FEW025 BKN090 BKN120 24/20 Q1005 NOSIG RMK 1CU025 5AC090 7AC120 A2970

2017-09-20 14:06

Hiroki Takakura hiroki_takakura

せっかくだから... (@ 丸亀製麺 羽田空港第2ビル店 in 大田区, 東京都)

2017-09-20 14:04

minami37346 minami373vr46

羽田空港ベースで活動中 たまに横田・入間にも展開します。。

羽田空港 ↓ N650GU
Gulfstream G650
#HND #gulfstream #Nエリア

2017-09-20 13:58

しゅにん basha1107

アイドルヲタ兼青色修行僧。月1ペースでLinQ通ってPLT防衛するぞ(*^^)v

I'm at 61番ゲート in 大田区, 東京都

2017-09-20 13:58

JA324A@HND✈ Bluewing787

I am Ground Staff @Haneda Airport. ☆Favorites:HND/NRT ANA/JAL/SFJ/DAL 747/777/787 etc. Suginami Tokyo

I'm at 羽田空港 第1旅客ターミナル in 大田区, 東京都

2017-09-20 13:55

DAI DAIsan_777

おやじゲーマーデス。アイマス、デレステ(Lv77、LP615)、ミリシタ(Lv48、LP537)、パズ松さん(ランク63)、音ゲー(半引退状態)、ポケGo(TL37)、やきうはDeNA、車はFREED+(765ステッカー付き)、諸々。

ビリリダマの大きさと。白サークルの大きさが同じで草、、スクショ撮るのに苦労した。

2017-09-20 13:52

しゅにん basha1107

アイドルヲタ兼青色修行僧。月1ペースでLinQ通ってPLT防衛するぞ(*^^)v

I'm at ANAラウンジ 本館北 in 大田区, 東京都

2017-09-20 13:52

しゅにん basha1107

アイドルヲタ兼青色修行僧。月1ペースでLinQ通ってPLT防衛するぞ(*^^)v

I'm at 東京国際空港 / 羽田空港 in 大田区, 東京都

2017-09-20 13:52

RJSKの人 JA707Ana_RJSK

秋田空港利用推進協議会会長

I'm at 羽田空港 第2旅客ターミナル in 大田区, 東京都

2017-09-20 13:49

TakumiYoshida|VJTKMi TKMiVJ

吉田拓巳 7sense Inc. Founder&CEO 平成7年生まれの21歳。15歳で会社設立。デジタルで物創りしてます。10代のネット擬似選挙 作りました。LIVEやSHOWの舞台演出とか。たまにテレビにも出てりしてます。サンジャポとか。

I'm at 東京国際空港 / 羽田空港 in 大田区, 東京都

2017-09-20 13:47

RJTT METAR rjtt_metar

Haneda, Tokyo Int'l Airport

RJTT 200430Z 16010KT 9999 FEW025 BKN090 BKN130 24/20 Q1006 NOSIG RMK 1CU025 5AC090 7AC130 A2972

2017-09-20 13:36

しゅにん basha1107

アイドルヲタ兼青色修行僧。月1ペースでLinQ通ってPLT防衛するぞ(*^^)v

牛丼定食(^_^;) (@ 丸亀製麺 羽田空港第2ビル店 in 大田区, 東京都)

2017-09-20 13:30